Kezdőlap
METAR-TAF:

METAR-TAF

Repülőterek :

Hagåtña, Guam, Amerikai Egyesült Államok

földrajzi szélesség: 13-29N, földrajzi hosszúság: 144-48E, magasság: 91 m

Jelenlegi meteorológiai megfigyelések

A jelentés 53 perccel ezelõtt készült, 09:54 UTC
Keleti szél 4 kt
Hőmérséklet 27°C
Páratartalom 94%
Légköri nyomás 1010 hPa
Látótávolság: 16.1 km
Szakadozott felhőzet 7000 lábon
enyhe esõ

METAR: PGUM 160954Z 09004KT 10SM -RA BKN070 27/26 A2983 RMK AO2 RAB37 SLP095 P0000 T02720261

Idő: 20:47 (10:47 UTC)

Előrejelzés

A jelentés 4 órával és 52 perccel ezelõtt készült, 05:55 UTC
Az előrejelzés 16-én 06 óra UTC és 17-én 12 óra UTC között érvényes
Délkeleti szél 8 kt
Látótávolság: 10 km
Szórványos felhőzet 1600 lábon
Szakadozott felhőzet 10000 lábon
Záporok a közelben
16-én 06 óra UTC és 16-én 08 óra UTC között ideiglenes
Szakadozott felhőzet 1400 lábon

TAF: PGUM 160555Z 1606/1712 13008KT P6SM VCSH SCT016 BKN100 TEMPO 1606/1608 BKN014

Meteorológiai megfigyelések és előrejelzések több, mint 4000 repülőtéren (METAR és TAF jelentéseket).

A térképen piros és sárga pontok jelzik az elérhető meteorológiai állomásokat.

Mozgassa az egeret a pont fölött, hogy megjelenjen az állomás neve.

Azután kattintson az időjárási megfigyelések és előrejelzések megtekintéséhez.

A térkép megváltoztatása: kattintson a fekete keresztel jelölt zöld gombra ráközelítéshez, a vonallal jelölt zöld gombra távolításhoz, vagy a zöld nyilakra a szomszédos térképek eléréséhez.


METAR-TAF: